• Join FlightAware (Why Join?)
  • Login
  • US Flag 
08:13PM EDT


 

Airport Tracker/Info


-or-


 

Live Flight TrackerFlight Track Log ✈ N885FT ✈ 07-May-2014 ✈ KMLB - KOCF

Flight Track Log - Related Links

Times and Time Zones

All times are in EDT time to prevent confusion due to time zone crossing. See the N885FT flight status page for this flight to view local times or setup timezone preferences in your user account.

Time Position Orientation Groundspeed Altitude Reporting Facility
EDT Latitude Longitude Course Direction KTS MPH feet Rate Location/Type
07:52PM 28.1000 -80.6333 360° North 85 98 800  Level Orlando TRACON
07:53PM 28.1167 -80.6333 360° North 113 130 1,400 840 Climbing Orlando TRACON
07:53PM 28.1333 -80.6667 300° West 121 139 2,200 780 Climbing Orlando TRACON
07:54PM 28.1667 -80.7000 319° Northwest 129 148 2,900 660 Climbing Orlando TRACON
07:56PM 28.1833 -80.7333 300° West 136 157 3,700 540 Climbing Orlando TRACON
07:57PM 28.2167 -80.7667 319° Northwest 144 166 4,100 180 Climbing Orlando TRACON
07:58PM 28.2500 -80.8000 319° Northwest 177 204 4,100 -60 Level Orlando TRACON
07:59PM 28.2833 -80.8333 319° Northwest 174 200 4,000 -60 Descending Orlando TRACON
07:59PM 28.3000 -80.8833 291° West 173 199 4,000  Level Orlando TRACON
08:01PM 28.3333 -80.9333 307° West 175 201 4,000  Level Orlando TRACON
08:01PM 28.3500 -80.9833 291° West 175 201 4,000  Level Orlando TRACON
08:02PM 28.3667 -81.0333 291° West 174 200 4,100  Climbing Orlando TRACON
08:04PM 28.4000 -81.0833 307° West 174 200 4,100  Level Orlando TRACON
08:05PM 28.4167 -81.1333 291° West 172 198 4,100  Level Orlando TRACON
08:06PM 28.4333 -81.1833 291° West 169 194 4,100  Level Orlando TRACON
08:07PM 28.4333 -81.2333 270° West 172 198 4,100 180 Level Orlando TRACON
08:08PM 28.4333 -81.2833 270° West 147 169 4,500 360 Climbing Orlando TRACON
08:09PM 28.4500 -81.3167 300° West 142 163 4,900 480 Climbing Orlando TRACON
08:10PM 28.4500 -81.3667 270° West 140 161 5,500 480 Climbing Orlando TRACON
08:11PM 28.4500 -81.4167 270° West 148 170 5,900 240 Climbing Orlando TRACON
08:12PM 28.4667 -81.4667 291° West 161 185 6,000 60 Climbing Orlando TRACON
08:13PM 28.4833 -81.5167 291° West 171 197 6,100  Climbing Orlando TRACON
08:14PM 28.5000 -81.5667 291° West 175 201 6,000 -60 Descending Orlando TRACON
08:15PM 28.5333 -81.6167 307° West 176 203 6,000  Level Orlando TRACON
08:16PM 28.5500 -81.6667 291° West 173 199 6,000  Level Orlando TRACON
08:17PM 28.5833 -81.7000 319° Northwest 183 211 6,000  Level Orlando TRACON
08:18PM 28.6458 -81.7617 319° Northwest 171 197 6,100  Climbing Jacksonville Center
08:19PM 28.6817 -81.7944 321° Northwest 170 196 6,000 -60 Descending Jacksonville Center
08:20PM 28.7194 -81.8272 323° Northwest 171 197 6,000  Level Jacksonville Center
08:21PM 28.7489 -81.8578 318° Northwest 173 199 6,000  Level Jacksonville Center
08:22PM 28.7867 -81.8906 323° Northwest 168 193 6,000  Level Jacksonville Center
08:23PM 28.8267 -81.9233 324° Northwest 168 193 6,000  Level Jacksonville Center
08:24PM 28.8622 -81.9536 323° Northwest 168 193 6,000  Level Jacksonville Center
08:25PM 28.9064 -81.9794 333° Northwest 172 198 6,000 -120 Level Jacksonville Center
08:26PM 28.9503 -81.9933 345° North 169 194 5,800 -300 Descending Jacksonville Center
08:27PM 28.9983 -82.0094 344° North 182 209 5,400 -480 Descending Jacksonville Center
08:28PM 29.0486 -82.0256 344° North 181 208 4,900 -600 Descending Jacksonville Center
08:29PM 29.0989 -82.0394 346° North 180 207 4,300 -660 Descending Jacksonville Center
08:30PM 29.1447 -82.0606 338° Northwest 182 209 3,600 -600 Descending Jacksonville Center
08:31PM 29.1950 -82.0742 347° North 179 206 3,100 -300 Descending Jacksonville Center
08:32PM 29.2389 -82.0906 342° North 167 192 3,100 -60 Level Jacksonville Center
08:33PM 29.2828 -82.1044 345° North 163 188 3,000 -480 Descending Jacksonville Center
08:34PM 29.3269 -82.1231 340° North 163 188 2,200 -420 Descending Jacksonville Center
08:35PM 29.3644 -82.1397 339° North 123 142 2,200  Level Jacksonville Center
08:36PM 29.3625 -82.1800 267° West 117 135 2,200 -60 Level Jacksonville Center
08:37PM 29.3628 -82.2133 271° West 122 140 2,100 -300 Descending Jacksonville Center
08:39PM 29.3317 -82.2256 199° South 103 119 1,700 -180 Descending Jacksonville Center
08:40PM 29.3044 -82.2258 181° South 91 105 1,800 60 Climbing Jacksonville Center
08:41PM 29.2753 -82.2283 184° South 107 123 1,900 -180 Climbing Jacksonville Center
08:42PM 29.2522 -82.2286 181° South 87 100 1,500 -420 Descending Jacksonville Center
08:43PM 29.2231 -82.2239 172° South 94 108 1,100 -480 Descending Jacksonville Center
08:44PM 29.1981 -82.2264 185° South 95 109 600 -420 Descending Jacksonville Center
08:45PM 29.1731 -82.2267 181° South 93 107 300  Descending Jacksonville Center
08:45PM 29.1561 -82.2267 180° South 109 125 700 840 Climbing Jacksonville Center
08:46PM 29.1519 -82.2292 208° Southwest 99 114 1,000 840 Climbing Jacksonville Center
08:47PM 29.1333 -82.2128 142° Southeast 86 99 1,800 540 Climbing Jacksonville Center
08:48PM 29.1267 -82.1794 103° East 114 131 2,100 300 Climbing Jacksonville Center